sensor_id;sensor_type;location;lat;lon;timestamp;P1;durP1;ratioP1;P2;durP2;ratioP2
18102;SDS011;9178;51.120;6.192;2022-08-01T00:01:45;2.53;;;2.20;;
18102;SDS011;9178;51.120;6.192;2022-08-01T00:04:12;3.58;;;1.85;;
18102;SDS011;9178;51.120;6.192;2022-08-01T00:06:40;3.63;;;2.00;;
18102;SDS011;9178;51.120;6.192;2022-08-01T00:09:07;5.25;;;2.30;;
18102;SDS011;9178;51.120;6.192;2022-08-01T00:11:34;2.80;;;1.90;;
18102;SDS011;9178;51.120;6.192;2022-08-01T00:14:00;2.42;;;2.13;;
18102;SDS011;9178;51.120;6.192;2022-08-01T00:16:27;1.95;;;1.77;;
18102;SDS011;9178;51.120;6.192;2022-08-01T00:18:54;2.38;;;2.17;;
18102;SDS011;9178;51.120;6.192;2022-08-01T00:21:21;2.88;;;1.85;;
18102;SDS011;9178;51.120;6.192;2022-08-01T00:23:49;3.85;;;1.98;;
18102;SDS011;9178;51.120;6.192;2022-08-01T00:26:16;3.58;;;1.88;;
18102;SDS011;9178;51.120;6.192;2022-08-01T00:28:43;2.50;;;1.88;;
18102;SDS011;9178;51.120;6.192;2022-08-01T00:31:09;4.03;;;1.85;;
18102;SDS011;9178;51.120;6.192;2022-08-01T00:33:36;2.45;;;1.80;;
18102;SDS011;9178;51.120;6.192;2022-08-01T00:36:03;2.20;;;1.98;;
18102;SDS011;9178;51.120;6.192;2022-08-01T00:38:30;2.20;;;1.85;;
18102;SDS011;9178;51.120;6.192;2022-08-01T00:40:58;2.42;;;1.73;;
18102;SDS011;9178;51.120;6.192;2022-08-01T00:43:25;2.78;;;1.80;;
18102;SDS011;9178;51.120;6.192;2022-08-01T00:45:52;1.70;;;1.60;;
18102;SDS011;9178;51.120;6.192;2022-08-01T00:48:18;3.53;;;1.80;;
18102;SDS011;9178;51.120;6.192;2022-08-01T00:50:45;2.50;;;1.88;;
18102;SDS011;9178;51.120;6.192;2022-08-01T00:53:12;2.33;;;1.80;;
18102;SDS011;9178;51.120;6.192;2022-08-01T00:55:39;2.97;;;1.90;;
18102;SDS011;9178;51.120;6.192;2022-08-01T00:58:08;2.90;;;1.70;;
18102;SDS011;9178;51.120;6.192;2022-08-01T01:00:35;1.88;;;1.70;;
18102;SDS011;9178;51.120;6.192;2022-08-01T01:03:02;2.38;;;1.75;;
18102;SDS011;9178;51.120;6.192;2022-08-01T01:05:29;1.98;;;1.80;;
18102;SDS011;9178;51.120;6.192;2022-08-01T01:08:02;3.00;;;2.17;;
18102;SDS011;9178;51.120;6.192;2022-08-01T01:10:35;3.20;;;1.90;;
18102;SDS011;9178;51.120;6.192;2022-08-01T01:13:10;1.88;;;1.77;;
18102;SDS011;9178;51.120;6.192;2022-08-01T01:15:43;1.88;;;1.77;;
18102;SDS011;9178;51.120;6.192;2022-08-01T01:18:14;2.00;;;1.90;;
18102;SDS011;9178;51.120;6.192;2022-08-01T01:20:44;3.17;;;2.00;;
18102;SDS011;9178;51.120;6.192;2022-08-01T01:23:21;3.83;;;2.28;;
18102;SDS011;9178;51.120;6.192;2022-08-01T01:26:04;3.58;;;2.20;;
18102;SDS011;9178;51.120;6.192;2022-08-01T01:28:53;2.38;;;2.17;;
18102;SDS011;9178;51.120;6.192;2022-08-01T01:31:27;2.55;;;1.67;;
18102;SDS011;9178;51.120;6.192;2022-08-01T01:33:57;2.22;;;2.00;;
18102;SDS011;9178;51.120;6.192;2022-08-01T01:36:25;2.53;;;2.33;;
18102;SDS011;9178;51.120;6.192;2022-08-01T01:38:54;2.78;;;2.20;;
18102;SDS011;9178;51.120;6.192;2022-08-01T01:41:22;2.45;;;2.22;;
18102;SDS011;9178;51.120;6.192;2022-08-01T01:43:50;1.80;;;1.70;;
18102;SDS011;9178;51.120;6.192;2022-08-01T01:46:20;3.50;;;1.90;;
18102;SDS011;9178;51.120;6.192;2022-08-01T01:48:51;2.30;;;2.10;;
18102;SDS011;9178;51.120;6.192;2022-08-01T01:51:21;2.22;;;1.58;;
18102;SDS011;9178;51.120;6.192;2022-08-01T01:53:50;3.17;;;2.00;;
18102;SDS011;9178;51.120;6.192;2022-08-01T01:56:19;3.58;;;2.25;;
18102;SDS011;9178;51.120;6.192;2022-08-01T01:58:48;2.25;;;1.90;;
18102;SDS011;9178;51.120;6.192;2022-08-01T02:01:20;3.40;;;1.92;;
18102;SDS011;9178;51.120;6.192;2022-08-01T02:03:49;4.65;;;2.13;;
18102;SDS011;9178;51.120;6.192;2022-08-01T02:06:18;3.35;;;2.30;;
18102;SDS011;9178;51.120;6.192;2022-08-01T02:08:47;2.63;;;2.03;;
18102;SDS011;9178;51.120;6.192;2022-08-01T02:11:14;2.08;;;1.85;;
18102;SDS011;9178;51.120;6.192;2022-08-01T02:13:48;2.42;;;2.03;;
18102;SDS011;9178;51.120;6.192;2022-08-01T02:16:21;4.40;;;1.70;;
18102;SDS011;9178;51.120;6.192;2022-08-01T02:18:50;3.15;;;1.73;;
18102;SDS011;9178;51.120;6.192;2022-08-01T02:21:19;2.00;;;1.80;;
18102;SDS011;9178;51.120;6.192;2022-08-01T02:23:51;3.13;;;2.72;;
18102;SDS011;9178;51.120;6.192;2022-08-01T02:26:19;2.33;;;1.75;;
18102;SDS011;9178;51.120;6.192;2022-08-01T02:28:49;3.58;;;1.70;;
18102;SDS011;9178;51.120;6.192;2022-08-01T02:31:20;2.72;;;2.10;;
18102;SDS011;9178;51.120;6.192;2022-08-01T02:33:52;2.30;;;2.00;;
18102;SDS011;9178;51.120;6.192;2022-08-01T02:36:23;4.20;;;2.20;;
18102;SDS011;9178;51.120;6.192;2022-08-01T02:38:53;4.18;;;2.35;;
18102;SDS011;9178;51.120;6.192;2022-08-01T02:41:22;4.88;;;1.90;;
18102;SDS011;9178;51.120;6.192;2022-08-01T02:43:51;2.38;;;1.60;;
18102;SDS011;9178;51.120;6.192;2022-08-01T02:46:20;2.92;;;2.35;;
18102;SDS011;9178;51.120;6.192;2022-08-01T02:48:52;2.90;;;2.22;;
18102;SDS011;9178;51.120;6.192;2022-08-01T02:51:21;3.97;;;2.45;;
18102;SDS011;9178;51.120;6.192;2022-08-01T02:53:51;2.05;;;1.90;;
18102;SDS011;9178;51.120;6.192;2022-08-01T02:56:20;3.38;;;2.05;;
18102;SDS011;9178;51.120;6.192;2022-08-01T02:58:48;3.47;;;2.45;;
18102;SDS011;9178;51.120;6.192;2022-08-01T03:01:17;2.35;;;2.15;;
18102;SDS011;9178;51.120;6.192;2022-08-01T03:03:47;4.07;;;2.40;;
18102;SDS011;9178;51.120;6.192;2022-08-01T03:06:14;4.18;;;2.38;;
18102;SDS011;9178;51.120;6.192;2022-08-01T03:08:42;3.10;;;2.25;;
18102;SDS011;9178;51.120;6.192;2022-08-01T03:11:11;2.55;;;2.15;;
18102;SDS011;9178;51.120;6.192;2022-08-01T03:13:40;2.55;;;2.03;;
18102;SDS011;9178;51.120;6.192;2022-08-01T03:16:09;2.85;;;2.30;;
18102;SDS011;9178;51.120;6.192;2022-08-01T03:18:37;2.83;;;2.60;;
18102;SDS011;9178;51.120;6.192;2022-08-01T03:21:07;3.13;;;2.72;;
18102;SDS011;9178;51.120;6.192;2022-08-01T03:23:36;5.95;;;2.95;;
18102;SDS011;9178;51.120;6.192;2022-08-01T03:26:04;4.32;;;3.92;;
18102;SDS011;9178;51.120;6.192;2022-08-01T03:28:32;8.48;;;4.03;;
18102;SDS011;9178;51.120;6.192;2022-08-01T03:30:59;4.55;;;3.22;;
18102;SDS011;9178;51.120;6.192;2022-08-01T03:33:28;3.97;;;3.30;;
18102;SDS011;9178;51.120;6.192;2022-08-01T03:35:55;4.20;;;3.53;;
18102;SDS011;9178;51.120;6.192;2022-08-01T03:38:25;4.03;;;3.60;;
18102;SDS011;9178;51.120;6.192;2022-08-01T03:40:55;4.97;;;3.85;;
18102;SDS011;9178;51.120;6.192;2022-08-01T03:43:26;5.30;;;3.75;;
18102;SDS011;9178;51.120;6.192;2022-08-01T03:46:01;5.65;;;3.70;;
18102;SDS011;9178;51.120;6.192;2022-08-01T03:48:34;4.43;;;3.60;;
18102;SDS011;9178;51.120;6.192;2022-08-01T03:51:05;5.57;;;4.78;;
18102;SDS011;9178;51.120;6.192;2022-08-01T03:53:34;7.75;;;4.90;;
18102;SDS011;9178;51.120;6.192;2022-08-01T03:56:03;8.05;;;5.30;;
18102;SDS011;9178;51.120;6.192;2022-08-01T03:58:33;6.50;;;4.30;;
18102;SDS011;9178;51.120;6.192;2022-08-01T04:01:01;5.25;;;4.07;;
18102;SDS011;9178;51.120;6.192;2022-08-01T04:03:27;8.85;;;5.78;;
18102;SDS011;9178;51.120;6.192;2022-08-01T04:05:54;10.15;;;5.72;;
18102;SDS011;9178;51.120;6.192;2022-08-01T04:08:21;6.70;;;4.75;;
18102;SDS011;9178;51.120;6.192;2022-08-01T04:10:49;7.28;;;4.65;;
18102;SDS011;9178;51.120;6.192;2022-08-01T04:13:16;7.03;;;5.57;;
18102;SDS011;9178;51.120;6.192;2022-08-01T04:15:43;7.57;;;5.65;;
18102;SDS011;9178;51.120;6.192;2022-08-01T04:18:10;8.10;;;6.25;;
18102;SDS011;9178;51.120;6.192;2022-08-01T04:20:38;8.07;;;5.80;;
18102;SDS011;9178;51.120;6.192;2022-08-01T04:23:04;7.97;;;6.20;;
18102;SDS011;9178;51.120;6.192;2022-08-01T04:25:33;11.38;;;7.13;;
18102;SDS011;9178;51.120;6.192;2022-08-01T04:28:03;10.70;;;5.72;;
18102;SDS011;9178;51.120;6.192;2022-08-01T04:30:33;6.93;;;4.85;;
18102;SDS011;9178;51.120;6.192;2022-08-01T04:33:02;8.63;;;5.78;;
18102;SDS011;9178;51.120;6.192;2022-08-01T04:35:31;6.53;;;5.47;;
18102;SDS011;9178;51.120;6.192;2022-08-01T04:37:59;10.15;;;5.75;;
18102;SDS011;9178;51.120;6.192;2022-08-01T04:40:28;8.02;;;5.30;;
18102;SDS011;9178;51.120;6.192;2022-08-01T04:42:56;9.35;;;5.68;;
18102;SDS011;9178;51.120;6.192;2022-08-01T04:45:25;7.82;;;5.75;;
18102;SDS011;9178;51.120;6.192;2022-08-01T04:47:52;9.98;;;5.78;;
18102;SDS011;9178;51.120;6.192;2022-08-01T04:50:20;10.95;;;7.18;;
18102;SDS011;9178;51.120;6.192;2022-08-01T04:52:48;11.45;;;5.90;;
18102;SDS011;9178;51.120;6.192;2022-08-01T04:55:16;7.38;;;6.40;;
18102;SDS011;9178;51.120;6.192;2022-08-01T04:57:43;7.28;;;6.03;;
18102;SDS011;9178;51.120;6.192;2022-08-01T05:00:11;9.38;;;6.75;;
18102;SDS011;9178;51.120;6.192;2022-08-01T05:02:40;9.10;;;6.18;;
18102;SDS011;9178;51.120;6.192;2022-08-01T05:05:07;11.75;;;5.88;;
18102;SDS011;9178;51.120;6.192;2022-08-01T05:07:35;10.10;;;6.22;;
18102;SDS011;9178;51.120;6.192;2022-08-01T05:10:02;6.45;;;5.82;;
18102;SDS011;9178;51.120;6.192;2022-08-01T05:12:30;10.68;;;6.88;;
18102;SDS011;9178;51.120;6.192;2022-08-01T05:14:57;9.85;;;5.85;;
18102;SDS011;9178;51.120;6.192;2022-08-01T05:17:24;10.73;;;6.55;;
18102;SDS011;9178;51.120;6.192;2022-08-01T05:19:52;10.35;;;6.45;;
18102;SDS011;9178;51.120;6.192;2022-08-01T05:22:19;9.75;;;6.53;;
18102;SDS011;9178;51.120;6.192;2022-08-01T05:24:47;9.93;;;6.97;;
18102;SDS011;9178;51.120;6.192;2022-08-01T05:27:14;12.77;;;7.95;;
18102;SDS011;9178;51.120;6.192;2022-08-01T05:29:41;12.32;;;7.10;;
18102;SDS011;9178;51.120;6.192;2022-08-01T05:32:08;10.43;;;6.85;;
18102;SDS011;9178;51.120;6.192;2022-08-01T05:34:35;9.07;;;6.88;;
18102;SDS011;9178;51.120;6.192;2022-08-01T05:37:03;7.45;;;6.30;;
18102;SDS011;9178;51.120;6.192;2022-08-01T05:39:30;12.77;;;9.38;;
18102;SDS011;9178;51.120;6.192;2022-08-01T05:41:57;12.85;;;8.50;;
18102;SDS011;9178;51.120;6.192;2022-08-01T05:44:23;11.25;;;7.43;;
18102;SDS011;9178;51.120;6.192;2022-08-01T05:46:50;13.13;;;9.27;;
18102;SDS011;9178;51.120;6.192;2022-08-01T05:49:17;11.15;;;8.27;;
18102;SDS011;9178;51.120;6.192;2022-08-01T05:51:44;9.82;;;7.60;;
18102;SDS011;9178;51.120;6.192;2022-08-01T05:54:12;11.77;;;8.60;;
18102;SDS011;9178;51.120;6.192;2022-08-01T05:56:39;11.35;;;8.75;;
18102;SDS011;9178;51.120;6.192;2022-08-01T05:59:06;9.77;;;8.75;;
18102;SDS011;9178;51.120;6.192;2022-08-01T06:01:32;10.35;;;8.68;;
18102;SDS011;9178;51.120;6.192;2022-08-01T06:03:59;12.10;;;9.15;;
18102;SDS011;9178;51.120;6.192;2022-08-01T06:06:26;13.88;;;8.98;;
18102;SDS011;9178;51.120;6.192;2022-08-01T06:08:53;10.88;;;8.60;;
18102;SDS011;9178;51.120;6.192;2022-08-01T06:11:21;12.30;;;9.07;;
18102;SDS011;9178;51.120;6.192;2022-08-01T06:13:48;10.98;;;8.30;;
18102;SDS011;9178;51.120;6.192;2022-08-01T06:16:14;11.63;;;8.90;;
18102;SDS011;9178;51.120;6.192;2022-08-01T06:18:41;11.45;;;9.05;;
18102;SDS011;9178;51.120;6.192;2022-08-01T06:21:08;11.00;;;9.52;;
18102;SDS011;9178;51.120;6.192;2022-08-01T06:23:35;13.30;;;10.25;;
18102;SDS011;9178;51.120;6.192;2022-08-01T06:26:02;12.73;;;10.70;;
18102;SDS011;9178;51.120;6.192;2022-08-01T06:28:30;15.05;;;10.68;;
18102;SDS011;9178;51.120;6.192;2022-08-01T06:30:57;12.32;;;10.70;;
18102;SDS011;9178;51.120;6.192;2022-08-01T06:33:25;13.70;;;9.90;;
18102;SDS011;9178;51.120;6.192;2022-08-01T06:35:51;15.07;;;10.57;;
18102;SDS011;9178;51.120;6.192;2022-08-01T06:38:18;10.68;;;8.68;;
18102;SDS011;9178;51.120;6.192;2022-08-01T06:40:45;13.60;;;9.50;;
18102;SDS011;9178;51.120;6.192;2022-08-01T06:43:12;13.02;;;9.75;;
18102;SDS011;9178;51.120;6.192;2022-08-01T06:45:41;12.25;;;8.98;;
18102;SDS011;9178;51.120;6.192;2022-08-01T06:48:08;10.68;;;9.38;;
18102;SDS011;9178;51.120;6.192;2022-08-01T06:50:35;13.15;;;9.45;;
18102;SDS011;9178;51.120;6.192;2022-08-01T06:53:02;16.00;;;10.70;;
18102;SDS011;9178;51.120;6.192;2022-08-01T06:55:29;10.48;;;9.40;;
18102;SDS011;9178;51.120;6.192;2022-08-01T06:57:55;11.32;;;9.32;;
18102;SDS011;9178;51.120;6.192;2022-08-01T07:00:23;11.32;;;10.13;;
18102;SDS011;9178;51.120;6.192;2022-08-01T07:02:53;12.38;;;10.55;;
18102;SDS011;9178;51.120;6.192;2022-08-01T07:05:21;13.57;;;11.10;;
18102;SDS011;9178;51.120;6.192;2022-08-01T07:07:48;12.35;;;9.95;;
18102;SDS011;9178;51.120;6.192;2022-08-01T07:10:15;12.52;;;10.00;;
18102;SDS011;9178;51.120;6.192;2022-08-01T07:12:43;13.18;;;10.40;;
18102;SDS011;9178;51.120;6.192;2022-08-01T07:15:10;13.70;;;10.50;;
18102;SDS011;9178;51.120;6.192;2022-08-01T07:17:37;11.48;;;8.63;;
18102;SDS011;9178;51.120;6.192;2022-08-01T07:20:07;10.82;;;8.85;;
18102;SDS011;9178;51.120;6.192;2022-08-01T07:22:35;9.32;;;8.02;;
18102;SDS011;9178;51.120;6.192;2022-08-01T07:25:03;8.63;;;7.78;;
18102;SDS011;9178;51.120;6.192;2022-08-01T07:27:30;9.90;;;8.90;;
18102;SDS011;9178;51.120;6.192;2022-08-01T07:29:57;9.38;;;7.90;;
18102;SDS011;9178;51.120;6.192;2022-08-01T07:32:24;10.30;;;8.43;;
18102;SDS011;9178;51.120;6.192;2022-08-01T07:34:51;12.38;;;7.90;;
18102;SDS011;9178;51.120;6.192;2022-08-01T07:37:19;9.10;;;8.18;;
18102;SDS011;9178;51.120;6.192;2022-08-01T07:39:46;10.02;;;8.20;;
18102;SDS011;9178;51.120;6.192;2022-08-01T07:42:13;9.15;;;8.15;;
18102;SDS011;9178;51.120;6.192;2022-08-01T07:44:39;11.07;;;9.55;;
18102;SDS011;9178;51.120;6.192;2022-08-01T07:47:06;11.45;;;10.25;;
18102;SDS011;9178;51.120;6.192;2022-08-01T07:49:33;11.88;;;10.40;;
18102;SDS011;9178;51.120;6.192;2022-08-01T07:52:01;10.70;;;9.43;;
18102;SDS011;9178;51.120;6.192;2022-08-01T07:54:29;9.38;;;8.32;;
18102;SDS011;9178;51.120;6.192;2022-08-01T07:56:56;10.65;;;9.00;;
18102;SDS011;9178;51.120;6.192;2022-08-01T07:59:23;9.93;;;8.23;;
18102;SDS011;9178;51.120;6.192;2022-08-01T08:01:50;10.73;;;9.50;;
18102;SDS011;9178;51.120;6.192;2022-08-01T08:04:17;13.10;;;10.88;;
18102;SDS011;9178;51.120;6.192;2022-08-01T08:06:44;11.10;;;9.80;;
18102;SDS011;9178;51.120;6.192;2022-08-01T08:09:12;10.48;;;9.05;;
18102;SDS011;9178;51.120;6.192;2022-08-01T08:11:41;11.75;;;10.10;;
18102;SDS011;9178;51.120;6.192;2022-08-01T08:14:08;10.73;;;8.82;;
18102;SDS011;9178;51.120;6.192;2022-08-01T08:16:35;10.75;;;8.48;;
18102;SDS011;9178;51.120;6.192;2022-08-01T08:19:01;10.70;;;8.20;;
18102;SDS011;9178;51.120;6.192;2022-08-01T08:21:28;9.25;;;7.97;;
18102;SDS011;9178;51.120;6.192;2022-08-01T08:23:55;10.18;;;9.13;;
18102;SDS011;9178;51.120;6.192;2022-08-01T08:26:40;12.50;;;9.45;;
18102;SDS011;9178;51.120;6.192;2022-08-01T08:29:07;11.35;;;9.52;;
18102;SDS011;9178;51.120;6.192;2022-08-01T08:31:34;10.70;;;8.55;;
18102;SDS011;9178;51.120;6.192;2022-08-01T08:34:01;10.18;;;7.45;;
18102;SDS011;9178;51.120;6.192;2022-08-01T08:36:28;10.77;;;9.00;;
18102;SDS011;9178;51.120;6.192;2022-08-01T08:38:54;12.00;;;9.95;;
18102;SDS011;9178;51.120;6.192;2022-08-01T08:41:21;12.27;;;9.68;;
18102;SDS011;9178;51.120;6.192;2022-08-01T08:43:50;10.65;;;9.48;;
18102;SDS011;9178;51.120;6.192;2022-08-01T08:46:17;12.10;;;10.02;;
18102;SDS011;9178;51.120;6.192;2022-08-01T08:48:45;10.95;;;9.85;;
18102;SDS011;9178;51.120;6.192;2022-08-01T08:51:13;10.85;;;9.13;;
18102;SDS011;9178;51.120;6.192;2022-08-01T08:53:43;9.48;;;8.48;;
18102;SDS011;9178;51.120;6.192;2022-08-01T08:56:12;10.65;;;8.90;;
18102;SDS011;9178;51.120;6.192;2022-08-01T08:58:40;9.88;;;8.10;;
18102;SDS011;9178;51.120;6.192;2022-08-01T09:01:11;9.23;;;8.23;;
18102;SDS011;9178;51.120;6.192;2022-08-01T09:03:38;9.80;;;7.70;;
18102;SDS011;9178;51.120;6.192;2022-08-01T09:06:06;11.15;;;8.27;;
18102;SDS011;9178;51.120;6.192;2022-08-01T09:08:33;8.32;;;7.05;;
18102;SDS011;9178;51.120;6.192;2022-08-01T09:11:00;8.27;;;7.38;;
18102;SDS011;9178;51.120;6.192;2022-08-01T09:13:26;8.07;;;7.28;;
18102;SDS011;9178;51.120;6.192;2022-08-01T09:15:54;11.50;;;6.85;;
18102;SDS011;9178;51.120;6.192;2022-08-01T09:21:13;6.72;;;6.03;;
18102;SDS011;9178;51.120;6.192;2022-08-01T09:23:42;6.88;;;6.18;;
18102;SDS011;9178;51.120;6.192;2022-08-01T09:26:11;5.53;;;4.88;;
18102;SDS011;9178;51.120;6.192;2022-08-01T09:28:38;6.80;;;6.18;;
18102;SDS011;9178;51.120;6.192;2022-08-01T09:31:06;5.50;;;5.00;;
18102;SDS011;9178;51.120;6.192;2022-08-01T09:33:48;7.32;;;4.95;;
18102;SDS011;9178;51.120;6.192;2022-08-01T09:36:16;6.38;;;5.78;;
18102;SDS011;9178;51.120;6.192;2022-08-01T09:38:43;5.85;;;4.78;;
18102;SDS011;9178;51.120;6.192;2022-08-01T09:41:10;8.18;;;5.70;;
18102;SDS011;9178;51.120;6.192;2022-08-01T09:43:37;5.78;;;5.15;;
18102;SDS011;9178;51.120;6.192;2022-08-01T09:46:04;5.68;;;4.22;;
18102;SDS011;9178;51.120;6.192;2022-08-01T09:48:35;5.15;;;4.18;;
18102;SDS011;9178;51.120;6.192;2022-08-01T09:51:05;5.68;;;4.22;;
18102;SDS011;9178;51.120;6.192;2022-08-01T09:53:40;3.60;;;3.30;;
18102;SDS011;9178;51.120;6.192;2022-08-01T09:56:12;4.07;;;3.45;;
18102;SDS011;9178;51.120;6.192;2022-08-01T09:58:55;4.72;;;3.75;;
18102;SDS011;9178;51.120;6.192;2022-08-01T10:01:23;4.97;;;4.57;;
18102;SDS011;9178;51.120;6.192;2022-08-01T10:04:07;5.22;;;4.82;;
18102;SDS011;9178;51.120;6.192;2022-08-01T10:06:37;3.75;;;3.55;;
18102;SDS011;9178;51.120;6.192;2022-08-01T10:09:04;3.92;;;3.63;;
18102;SDS011;9178;51.120;6.192;2022-08-01T10:11:31;4.50;;;4.10;;
18102;SDS011;9178;51.120;6.192;2022-08-01T10:13:59;4.60;;;4.20;;
18102;SDS011;9178;51.120;6.192;2022-08-01T10:16:27;5.18;;;4.45;;
18102;SDS011;9178;51.120;6.192;2022-08-01T10:18:54;4.97;;;4.40;;
18102;SDS011;9178;51.120;6.192;2022-08-01T10:21:22;7.85;;;5.22;;
18102;SDS011;9178;51.120;6.192;2022-08-01T10:23:53;6.03;;;5.10;;
18102;SDS011;9178;51.120;6.192;2022-08-01T10:26:21;6.45;;;4.65;;
18102;SDS011;9178;51.120;6.192;2022-08-01T10:28:52;7.10;;;4.82;;
18102;SDS011;9178;51.120;6.192;2022-08-01T10:31:21;4.20;;;3.80;;
18102;SDS011;9178;51.120;6.192;2022-08-01T10:33:49;5.05;;;3.70;;
18102;SDS011;9178;51.120;6.192;2022-08-01T10:36:17;4.25;;;3.58;;
18102;SDS011;9178;51.120;6.192;2022-08-01T10:38:46;3.72;;;3.42;;
18102;SDS011;9178;51.120;6.192;2022-08-01T10:41:14;2.92;;;2.63;;
18102;SDS011;9178;51.120;6.192;2022-08-01T10:43:44;3.03;;;2.83;;
18102;SDS011;9178;51.120;6.192;2022-08-01T10:46:11;3.88;;;3.58;;
18102;SDS011;9178;51.120;6.192;2022-08-01T10:48:39;3.10;;;2.90;;
18102;SDS011;9178;51.120;6.192;2022-08-01T10:51:11;3.22;;;2.78;;
18102;SDS011;9178;51.120;6.192;2022-08-01T10:53:45;2.58;;;2.08;;
18102;SDS011;9178;51.120;6.192;2022-08-01T10:56:12;1.90;;;1.80;;
18102;SDS011;9178;51.120;6.192;2022-08-01T10:58:42;2.20;;;2.00;;
18102;SDS011;9178;51.120;6.192;2022-08-01T11:01:23;3.22;;;2.85;;
18102;SDS011;9178;51.120;6.192;2022-08-01T11:04:02;2.47;;;2.28;;
18102;SDS011;9178;51.120;6.192;2022-08-01T11:06:42;16.15;;;2.40;;
18102;SDS011;9178;51.120;6.192;2022-08-01T11:09:21;2.25;;;1.88;;
18102;SDS011;9178;51.120;6.192;2022-08-01T11:11:59;4.70;;;1.80;;
18102;SDS011;9178;51.120;6.192;2022-08-01T11:14:28;1.20;;;1.20;;
18102;SDS011;9178;51.120;6.192;2022-08-01T11:16:57;1.75;;;1.20;;
18102;SDS011;9178;51.120;6.192;2022-08-01T11:20:06;2.28;;;1.25;;
18102;SDS011;9178;51.120;6.192;2022-08-01T11:31:42;1.42;;;1.20;;
18102;SDS011;9178;51.120;6.192;2022-08-01T11:34:08;2.70;;;0.82;;
18102;SDS011;9178;51.120;6.192;2022-08-01T11:36:35;0.98;;;0.80;;
18102;SDS011;9178;51.120;6.192;2022-08-01T11:39:12;1.05;;;0.90;;
18102;SDS011;9178;51.120;6.192;2022-08-01T11:41:41;2.20;;;0.73;;
18102;SDS011;9178;51.120;6.192;2022-08-01T11:44:10;6.57;;;0.90;;
18102;SDS011;9178;51.120;6.192;2022-08-01T11:46:55;1.08;;;1.00;;
18102;SDS011;9178;51.120;6.192;2022-08-01T11:49:28;1.10;;;1.00;;
18102;SDS011;9178;51.120;6.192;2022-08-01T11:52:03;0.70;;;0.70;;
18102;SDS011;9178;51.120;6.192;2022-08-01T11:54:32;1.67;;;0.77;;
18102;SDS011;9178;51.120;6.192;2022-08-01T11:57:02;0.90;;;0.90;;
18102;SDS011;9178;51.120;6.192;2022-08-01T11:59:40;1.05;;;1.05;;
18102;SDS011;9178;51.120;6.192;2022-08-01T12:02:24;0.82;;;0.82;;
18102;SDS011;9178;51.120;6.192;2022-08-01T12:04:54;2.45;;;0.90;;
18102;SDS011;9178;51.120;6.192;2022-08-01T12:07:27;1.33;;;1.00;;
18102;SDS011;9178;51.120;6.192;2022-08-01T12:09:58;1.38;;;1.00;;
18102;SDS011;9178;51.120;6.192;2022-08-01T12:12:29;1.13;;;1.00;;
18102;SDS011;9178;51.120;6.192;2022-08-01T12:14:58;1.85;;;1.20;;
18102;SDS011;9178;51.120;6.192;2022-08-01T12:17:29;1.05;;;1.05;;
18102;SDS011;9178;51.120;6.192;2022-08-01T12:19:57;0.90;;;0.90;;
18102;SDS011;9178;51.120;6.192;2022-08-01T12:22:24;1.00;;;1.00;;
18102;SDS011;9178;51.120;6.192;2022-08-01T12:24:51;0.77;;;0.77;;
18102;SDS011;9178;51.120;6.192;2022-08-01T12:27:26;1.08;;;0.98;;
18102;SDS011;9178;51.120;6.192;2022-08-01T12:29:53;0.80;;;0.80;;
18102;SDS011;9178;51.120;6.192;2022-08-01T12:32:23;0.80;;;0.80;;
18102;SDS011;9178;51.120;6.192;2022-08-01T12:34:53;1.00;;;1.00;;
18102;SDS011;9178;51.120;6.192;2022-08-01T12:37:20;0.90;;;0.90;;
18102;SDS011;9178;51.120;6.192;2022-08-01T12:39:47;1.40;;;0.80;;
18102;SDS011;9178;51.120;6.192;2022-08-01T12:42:14;0.80;;;0.80;;
18102;SDS011;9178;51.120;6.192;2022-08-01T12:44:42;1.50;;;0.80;;
18102;SDS011;9178;51.120;6.192;2022-08-01T12:47:10;2.45;;;1.00;;
18102;SDS011;9178;51.120;6.192;2022-08-01T12:49:40;1.10;;;1.00;;
18102;SDS011;9178;51.120;6.192;2022-08-01T12:52:09;0.85;;;0.85;;
18102;SDS011;9178;51.120;6.192;2022-08-01T12:57:26;3.22;;;1.02;;
18102;SDS011;9178;51.120;6.192;2022-08-01T12:59:53;2.03;;;0.98;;
18102;SDS011;9178;51.120;6.192;2022-08-01T13:02:31;1.15;;;0.93;;
18102;SDS011;9178;51.120;6.192;2022-08-01T13:05:00;1.00;;;1.00;;
18102;SDS011;9178;51.120;6.192;2022-08-01T13:07:34;1.02;;;0.93;;
18102;SDS011;9178;51.120;6.192;2022-08-01T13:10:02;1.23;;;0.80;;
18102;SDS011;9178;51.120;6.192;2022-08-01T13:12:29;0.80;;;0.80;;
18102;SDS011;9178;51.120;6.192;2022-08-01T13:14:56;0.70;;;0.70;;
18102;SDS011;9178;51.120;6.192;2022-08-01T13:17:30;1.70;;;0.77;;
18102;SDS011;9178;51.120;6.192;2022-08-01T13:19:57;0.88;;;0.73;;
18102;SDS011;9178;51.120;6.192;2022-08-01T13:22:32;0.60;;;0.60;;
18102;SDS011;9178;51.120;6.192;2022-08-01T13:25:09;0.88;;;0.80;;
18102;SDS011;9178;51.120;6.192;2022-08-01T13:27:37;1.80;;;0.93;;
18102;SDS011;9178;51.120;6.192;2022-08-01T13:30:11;1.40;;;0.88;;
18102;SDS011;9178;51.120;6.192;2022-08-01T13:32:39;1.40;;;0.90;;
18102;SDS011;9178;51.120;6.192;2022-08-01T13:35:07;2.70;;;1.00;;
18102;SDS011;9178;51.120;6.192;2022-08-01T13:37:38;1.23;;;1.08;;
18102;SDS011;9178;51.120;6.192;2022-08-01T13:40:07;1.80;;;0.90;;
18102;SDS011;9178;51.120;6.192;2022-08-01T13:42:35;0.90;;;0.80;;
18102;SDS011;9178;51.120;6.192;2022-08-01T13:45:02;2.60;;;0.80;;
18102;SDS011;9178;51.120;6.192;2022-08-01T13:47:32;3.50;;;1.20;;
18102;SDS011;9178;51.120;6.192;2022-08-01T13:49:59;2.10;;;1.00;;
18102;SDS011;9178;51.120;6.192;2022-08-01T13:52:27;2.40;;;1.05;;
18102;SDS011;9178;51.120;6.192;2022-08-01T13:54:55;3.40;;;1.20;;
18102;SDS011;9178;51.120;6.192;2022-08-01T13:57:22;1.00;;;1.00;;
18102;SDS011;9178;51.120;6.192;2022-08-01T13:59:49;2.00;;;1.17;;
18102;SDS011;9178;51.120;6.192;2022-08-01T14:02:16;0.98;;;0.98;;
18102;SDS011;9178;51.120;6.192;2022-08-01T14:04:43;2.90;;;1.33;;
18102;SDS011;9178;51.120;6.192;2022-08-01T14:07:10;1.10;;;1.00;;
18102;SDS011;9178;51.120;6.192;2022-08-01T14:09:37;1.40;;;1.13;;
18102;SDS011;9178;51.120;6.192;2022-08-01T14:12:06;1.75;;;1.23;;
18102;SDS011;9178;51.120;6.192;2022-08-01T14:14:33;1.45;;;1.00;;
18102;SDS011;9178;51.120;6.192;2022-08-01T14:17:00;2.30;;;1.40;;
18102;SDS011;9178;51.120;6.192;2022-08-01T14:19:27;2.53;;;1.30;;
18102;SDS011;9178;51.120;6.192;2022-08-01T14:21:54;3.83;;;1.17;;
18102;SDS011;9178;51.120;6.192;2022-08-01T14:24:21;1.80;;;1.10;;
18102;SDS011;9178;51.120;6.192;2022-08-01T14:26:48;1.02;;;0.90;;
18102;SDS011;9178;51.120;6.192;2022-08-01T14:29:16;1.20;;;1.10;;
18102;SDS011;9178;51.120;6.192;2022-08-01T14:31:43;1.40;;;0.98;;
18102;SDS011;9178;51.120;6.192;2022-08-01T14:34:10;2.28;;;1.00;;
18102;SDS011;9178;51.120;6.192;2022-08-01T14:36:38;1.67;;;0.90;;
18102;SDS011;9178;51.120;6.192;2022-08-01T14:39:05;1.85;;;1.20;;
18102;SDS011;9178;51.120;6.192;2022-08-01T14:41:32;3.80;;;1.17;;
18102;SDS011;9178;51.120;6.192;2022-08-01T14:43:59;0.90;;;0.90;;
18102;SDS011;9178;51.120;6.192;2022-08-01T14:46:27;1.50;;;0.90;;
18102;SDS011;9178;51.120;6.192;2022-08-01T14:48:56;1.40;;;0.80;;
18102;SDS011;9178;51.120;6.192;2022-08-01T14:51:23;1.83;;;0.73;;
18102;SDS011;9178;51.120;6.192;2022-08-01T14:53:50;2.13;;;0.65;;
18102;SDS011;9178;51.120;6.192;2022-08-01T14:56:17;1.00;;;0.80;;
18102;SDS011;9178;51.120;6.192;2022-08-01T14:58:45;1.48;;;0.85;;
18102;SDS011;9178;51.120;6.192;2022-08-01T15:01:12;0.85;;;0.70;;
18102;SDS011;9178;51.120;6.192;2022-08-01T15:03:40;2.38;;;0.80;;
18102;SDS011;9178;51.120;6.192;2022-08-01T15:06:06;0.70;;;0.70;;
18102;SDS011;9178;51.120;6.192;2022-08-01T15:08:36;0.68;;;0.68;;
18102;SDS011;9178;51.120;6.192;2022-08-01T15:11:05;2.28;;;0.65;;
18102;SDS011;9178;51.120;6.192;2022-08-01T15:13:33;1.23;;;0.88;;
18102;SDS011;9178;51.120;6.192;2022-08-01T15:16:02;0.70;;;0.68;;
18102;SDS011;9178;51.120;6.192;2022-08-01T15:18:29;3.13;;;0.88;;
18102;SDS011;9178;51.120;6.192;2022-08-01T15:20:57;0.60;;;0.60;;
18102;SDS011;9178;51.120;6.192;2022-08-01T15:23:24;0.90;;;0.73;;